sensor_id;sensor_type;location;lat;lon;timestamp;temperature;humidity
12948;DHT22;6539;49.476;8.484;2023-03-12T00:00:54;4.40;99.90
12948;DHT22;6539;49.476;8.484;2023-03-12T00:03:19;4.50;99.90
12948;DHT22;6539;49.476;8.484;2023-03-12T00:08:13;4.50;99.90
12948;DHT22;6539;49.476;8.484;2023-03-12T00:10:42;4.60;99.90
12948;DHT22;6539;49.476;8.484;2023-03-12T00:15:37;4.60;99.90
12948;DHT22;6539;49.476;8.484;2023-03-12T00:18:04;4.60;99.90
12948;DHT22;6539;49.476;8.484;2023-03-12T00:20:29;4.20;99.90
12948;DHT22;6539;49.476;8.484;2023-03-12T00:22:58;4.40;99.90
12948;DHT22;6539;49.476;8.484;2023-03-12T00:25:26;4.50;99.90
12948;DHT22;6539;49.476;8.484;2023-03-12T00:27:52;4.10;99.90
12948;DHT22;6539;49.476;8.484;2023-03-12T00:30:21;4.10;99.90
12948;DHT22;6539;49.476;8.484;2023-03-12T00:32:46;4.20;99.90
12948;DHT22;6539;49.476;8.484;2023-03-12T00:35:14;4.10;99.90
12948;DHT22;6539;49.476;8.484;2023-03-12T00:37:40;4.20;99.90
12948;DHT22;6539;49.476;8.484;2023-03-12T00:40:06;4.10;99.90
12948;DHT22;6539;49.476;8.484;2023-03-12T00:42:37;4.20;99.90
12948;DHT22;6539;49.476;8.484;2023-03-12T00:45:03;4.30;99.90
12948;DHT22;6539;49.476;8.484;2023-03-12T00:47:28;4.50;99.90
12948;DHT22;6539;49.476;8.484;2023-03-12T00:54:46;4.50;99.90
12948;DHT22;6539;49.476;8.484;2023-03-12T00:59:40;4.40;99.90
12948;DHT22;6539;49.476;8.484;2023-03-12T01:02:07;4.20;99.90
12948;DHT22;6539;49.476;8.484;2023-03-12T01:04:34;4.20;99.90
12948;DHT22;6539;49.476;8.484;2023-03-12T01:07:00;4.40;99.90
12948;DHT22;6539;49.476;8.484;2023-03-12T01:09:25;4.50;99.90
12948;DHT22;6539;49.476;8.484;2023-03-12T01:11:51;4.70;99.90
12948;DHT22;6539;49.476;8.484;2023-03-12T01:14:17;4.40;99.90
12948;DHT22;6539;49.476;8.484;2023-03-12T01:16:43;4.30;99.90
12948;DHT22;6539;49.476;8.484;2023-03-12T01:19:08;4.60;99.90
12948;DHT22;6539;49.476;8.484;2023-03-12T01:21:34;4.20;99.90
12948;DHT22;6539;49.476;8.484;2023-03-12T01:24:04;4.50;99.90
12948;DHT22;6539;49.476;8.484;2023-03-12T01:28:59;4.40;99.90
12948;DHT22;6539;49.476;8.484;2023-03-12T01:31:25;4.10;99.90
12948;DHT22;6539;49.476;8.484;2023-03-12T01:33:52;4.30;99.90
12948;DHT22;6539;49.476;8.484;2023-03-12T01:36:30;4.20;99.90
12948;DHT22;6539;49.476;8.484;2023-03-12T01:38:58;3.90;99.90
12948;DHT22;6539;49.476;8.484;2023-03-12T01:41:26;4.10;99.90
12948;DHT22;6539;49.476;8.484;2023-03-12T01:43:53;4.00;99.90
12948;DHT22;6539;49.476;8.484;2023-03-12T01:51:45;4.30;99.90
12948;DHT22;6539;49.476;8.484;2023-03-12T01:57:15;4.40;99.90
12948;DHT22;6539;49.476;8.484;2023-03-12T01:59:49;4.30;99.90
12948;DHT22;6539;49.476;8.484;2023-03-12T02:02:24;4.50;99.90
12948;DHT22;6539;49.476;8.484;2023-03-12T02:05:07;4.00;99.90
12948;DHT22;6539;49.476;8.484;2023-03-12T02:07:39;4.30;99.90
12948;DHT22;6539;49.476;8.484;2023-03-12T02:10:06;4.00;99.90
12948;DHT22;6539;49.476;8.484;2023-03-12T02:12:34;4.10;99.90
12948;DHT22;6539;49.476;8.484;2023-03-12T02:15:00;4.10;99.90
12948;DHT22;6539;49.476;8.484;2023-03-12T02:20:20;4.10;99.90
12948;DHT22;6539;49.476;8.484;2023-03-12T02:25:52;4.00;99.90
12948;DHT22;6539;49.476;8.484;2023-03-12T02:28:22;4.00;99.90
12948;DHT22;6539;49.476;8.484;2023-03-12T02:31:03;4.20;99.90
12948;DHT22;6539;49.476;8.484;2023-03-12T02:33:34;4.00;99.90
12948;DHT22;6539;49.476;8.484;2023-03-12T02:35:59;4.10;99.90
12948;DHT22;6539;49.476;8.484;2023-03-12T02:38:43;4.00;99.90
12948;DHT22;6539;49.476;8.484;2023-03-12T02:44:10;4.30;99.90
12948;DHT22;6539;49.476;8.484;2023-03-12T02:46:43;4.50;99.90
12948;DHT22;6539;49.476;8.484;2023-03-12T02:49:11;4.30;99.90
12948;DHT22;6539;49.476;8.484;2023-03-12T02:51:40;4.20;99.90
12948;DHT22;6539;49.476;8.484;2023-03-12T02:54:10;4.10;99.90
12948;DHT22;6539;49.476;8.484;2023-03-12T02:56:38;4.20;99.90
12948;DHT22;6539;49.476;8.484;2023-03-12T02:59:06;4.00;99.90
12948;DHT22;6539;49.476;8.484;2023-03-12T03:01:32;4.40;99.90
12948;DHT22;6539;49.476;8.484;2023-03-12T03:04:02;4.10;99.90
12948;DHT22;6539;49.476;8.484;2023-03-12T03:06:34;4.40;99.90
12948;DHT22;6539;49.476;8.484;2023-03-12T03:09:02;4.20;99.90
12948;DHT22;6539;49.476;8.484;2023-03-12T03:11:33;4.20;99.90
12948;DHT22;6539;49.476;8.484;2023-03-12T03:14:01;4.30;99.90
12948;DHT22;6539;49.476;8.484;2023-03-12T03:16:31;4.30;99.90
12948;DHT22;6539;49.476;8.484;2023-03-12T03:18:57;4.50;99.90
12948;DHT22;6539;49.476;8.484;2023-03-12T03:21:22;4.20;99.90
12948;DHT22;6539;49.476;8.484;2023-03-12T03:23:49;4.00;99.90
12948;DHT22;6539;49.476;8.484;2023-03-12T03:26:20;4.20;99.90
12948;DHT22;6539;49.476;8.484;2023-03-12T03:28:50;4.00;99.90
12948;DHT22;6539;49.476;8.484;2023-03-12T03:31:16;4.40;99.90
12948;DHT22;6539;49.476;8.484;2023-03-12T03:33:42;4.40;99.90
12948;DHT22;6539;49.476;8.484;2023-03-12T03:36:09;4.40;99.90
12948;DHT22;6539;49.476;8.484;2023-03-12T03:38:39;4.10;99.90
12948;DHT22;6539;49.476;8.484;2023-03-12T03:41:06;4.20;99.90
12948;DHT22;6539;49.476;8.484;2023-03-12T03:43:32;4.30;99.90
12948;DHT22;6539;49.476;8.484;2023-03-12T03:46:00;4.60;99.90
12948;DHT22;6539;49.476;8.484;2023-03-12T03:48:32;4.60;99.90
12948;DHT22;6539;49.476;8.484;2023-03-12T03:51:02;4.50;99.90
12948;DHT22;6539;49.476;8.484;2023-03-12T03:53:33;4.70;99.90
12948;DHT22;6539;49.476;8.484;2023-03-12T03:56:05;4.50;99.90
12948;DHT22;6539;49.476;8.484;2023-03-12T03:58:32;4.30;99.90
12948;DHT22;6539;49.476;8.484;2023-03-12T04:01:00;4.60;99.90
12948;DHT22;6539;49.476;8.484;2023-03-12T04:03:32;4.40;99.90
12948;DHT22;6539;49.476;8.484;2023-03-12T04:05:59;4.70;99.90
12948;DHT22;6539;49.476;8.484;2023-03-12T04:08:27;4.80;99.90
12948;DHT22;6539;49.476;8.484;2023-03-12T04:10:53;4.80;99.90
12948;DHT22;6539;49.476;8.484;2023-03-12T04:13:20;4.40;99.90
12948;DHT22;6539;49.476;8.484;2023-03-12T04:15:50;4.50;99.90
12948;DHT22;6539;49.476;8.484;2023-03-12T04:18:20;4.50;99.90
12948;DHT22;6539;49.476;8.484;2023-03-12T04:20:45;4.30;99.90
12948;DHT22;6539;49.476;8.484;2023-03-12T04:23:11;4.30;99.90
12948;DHT22;6539;49.476;8.484;2023-03-12T04:25:37;4.00;99.90
12948;DHT22;6539;49.476;8.484;2023-03-12T04:28:04;4.00;99.90
12948;DHT22;6539;49.476;8.484;2023-03-12T04:30:30;4.40;99.90
12948;DHT22;6539;49.476;8.484;2023-03-12T04:32:58;4.40;99.90
12948;DHT22;6539;49.476;8.484;2023-03-12T04:35:24;4.20;99.90
12948;DHT22;6539;49.476;8.484;2023-03-12T04:37:52;4.20;99.90
12948;DHT22;6539;49.476;8.484;2023-03-12T04:40:20;4.10;99.90
12948;DHT22;6539;49.476;8.484;2023-03-12T04:42:47;4.50;99.90
12948;DHT22;6539;49.476;8.484;2023-03-12T04:45:13;4.50;99.90
12948;DHT22;6539;49.476;8.484;2023-03-12T04:50:11;4.70;99.90
12948;DHT22;6539;49.476;8.484;2023-03-12T04:52:40;4.80;99.90
12948;DHT22;6539;49.476;8.484;2023-03-12T04:55:06;4.50;99.90
12948;DHT22;6539;49.476;8.484;2023-03-12T04:57:35;4.50;99.90
12948;DHT22;6539;49.476;8.484;2023-03-12T05:00:04;4.40;99.90
12948;DHT22;6539;49.476;8.484;2023-03-12T05:02:36;4.20;99.90
12948;DHT22;6539;49.476;8.484;2023-03-12T05:05:05;4.00;99.90
12948;DHT22;6539;49.476;8.484;2023-03-12T05:07:32;4.20;99.90
12948;DHT22;6539;49.476;8.484;2023-03-12T05:09:58;3.80;99.90
12948;DHT22;6539;49.476;8.484;2023-03-12T05:12:25;3.90;99.90
12948;DHT22;6539;49.476;8.484;2023-03-12T05:14:50;3.70;99.90
12948;DHT22;6539;49.476;8.484;2023-03-12T05:17:16;3.60;99.90
12948;DHT22;6539;49.476;8.484;2023-03-12T05:19:42;3.50;99.90
12948;DHT22;6539;49.476;8.484;2023-03-12T05:22:08;3.80;99.90
12948;DHT22;6539;49.476;8.484;2023-03-12T05:24:34;3.70;99.90
12948;DHT22;6539;49.476;8.484;2023-03-12T05:27:03;3.40;99.90
12948;DHT22;6539;49.476;8.484;2023-03-12T05:32:05;3.50;99.90
12948;DHT22;6539;49.476;8.484;2023-03-12T05:34:32;3.50;99.90
12948;DHT22;6539;49.476;8.484;2023-03-12T05:37:00;3.60;99.90
12948;DHT22;6539;49.476;8.484;2023-03-12T05:39:28;3.50;99.90
12948;DHT22;6539;49.476;8.484;2023-03-12T05:41:56;3.80;99.90
12948;DHT22;6539;49.476;8.484;2023-03-12T05:44:25;3.70;99.90
12948;DHT22;6539;49.476;8.484;2023-03-12T05:46:54;3.90;99.90
12948;DHT22;6539;49.476;8.484;2023-03-12T05:49:20;3.80;99.90
12948;DHT22;6539;49.476;8.484;2023-03-12T05:51:47;3.50;99.90
12948;DHT22;6539;49.476;8.484;2023-03-12T05:54:15;3.70;99.90
12948;DHT22;6539;49.476;8.484;2023-03-12T05:56:42;3.50;99.90
12948;DHT22;6539;49.476;8.484;2023-03-12T05:59:08;3.60;99.90
12948;DHT22;6539;49.476;8.484;2023-03-12T06:04:04;3.60;99.90
12948;DHT22;6539;49.476;8.484;2023-03-12T06:06:34;3.50;99.90
12948;DHT22;6539;49.476;8.484;2023-03-12T06:09:03;3.60;99.90
12948;DHT22;6539;49.476;8.484;2023-03-12T06:11:34;3.60;99.90
12948;DHT22;6539;49.476;8.484;2023-03-12T06:14:03;3.60;99.90
12948;DHT22;6539;49.476;8.484;2023-03-12T06:16:29;3.70;99.90
12948;DHT22;6539;49.476;8.484;2023-03-12T06:18:57;4.10;99.90
12948;DHT22;6539;49.476;8.484;2023-03-12T06:21:30;3.80;99.90
12948;DHT22;6539;49.476;8.484;2023-03-12T06:24:05;3.50;99.90
12948;DHT22;6539;49.476;8.484;2023-03-12T06:26:33;3.80;99.90
12948;DHT22;6539;49.476;8.484;2023-03-12T06:29:01;3.90;99.90
12948;DHT22;6539;49.476;8.484;2023-03-12T06:33:53;3.60;99.90
12948;DHT22;6539;49.476;8.484;2023-03-12T06:36:19;4.00;99.90
12948;DHT22;6539;49.476;8.484;2023-03-12T06:41:16;4.00;99.90
12948;DHT22;6539;49.476;8.484;2023-03-12T06:43:44;3.90;99.90
12948;DHT22;6539;49.476;8.484;2023-03-12T06:46:13;4.20;99.90
12948;DHT22;6539;49.476;8.484;2023-03-12T06:48:41;4.00;99.90
12948;DHT22;6539;49.476;8.484;2023-03-12T06:51:08;4.00;99.90
12948;DHT22;6539;49.476;8.484;2023-03-12T06:53:35;4.00;99.90
12948;DHT22;6539;49.476;8.484;2023-03-12T06:56:05;4.00;99.90
12948;DHT22;6539;49.476;8.484;2023-03-12T07:01:00;3.90;99.90
12948;DHT22;6539;49.476;8.484;2023-03-12T07:05:56;4.20;99.90
12948;DHT22;6539;49.476;8.484;2023-03-12T07:08:27;4.30;99.90
12948;DHT22;6539;49.476;8.484;2023-03-12T07:10:59;4.10;99.90
12948;DHT22;6539;49.476;8.484;2023-03-12T07:13:25;3.90;99.90
12948;DHT22;6539;49.476;8.484;2023-03-12T07:15:53;3.90;99.90
12948;DHT22;6539;49.476;8.484;2023-03-12T07:18:21;4.10;99.90
12948;DHT22;6539;49.476;8.484;2023-03-12T07:20:47;4.10;99.90
12948;DHT22;6539;49.476;8.484;2023-03-12T07:23:15;4.60;99.90
12948;DHT22;6539;49.476;8.484;2023-03-12T07:25:43;4.10;99.90
12948;DHT22;6539;49.476;8.484;2023-03-12T07:28:12;4.00;99.90
12948;DHT22;6539;49.476;8.484;2023-03-12T07:30:39;3.90;99.90
12948;DHT22;6539;49.476;8.484;2023-03-12T07:33:15;3.70;99.90
12948;DHT22;6539;49.476;8.484;2023-03-12T07:35:44;3.60;99.90
12948;DHT22;6539;49.476;8.484;2023-03-12T07:38:13;3.70;99.90
12948;DHT22;6539;49.476;8.484;2023-03-12T07:43:05;3.70;99.90
12948;DHT22;6539;49.476;8.484;2023-03-12T07:45:38;3.70;99.90
12948;DHT22;6539;49.476;8.484;2023-03-12T07:48:07;3.90;99.90
12948;DHT22;6539;49.476;8.484;2023-03-12T07:50:37;4.00;99.90
12948;DHT22;6539;49.476;8.484;2023-03-12T07:53:05;3.90;99.90
12948;DHT22;6539;49.476;8.484;2023-03-12T07:55:32;3.80;99.90
12948;DHT22;6539;49.476;8.484;2023-03-12T07:57:59;4.00;99.90
12948;DHT22;6539;49.476;8.484;2023-03-12T08:00:26;3.70;99.90
12948;DHT22;6539;49.476;8.484;2023-03-12T08:05:19;4.00;99.90
12948;DHT22;6539;49.476;8.484;2023-03-12T08:07:51;3.90;99.90
12948;DHT22;6539;49.476;8.484;2023-03-12T08:10:18;4.20;99.90
12948;DHT22;6539;49.476;8.484;2023-03-12T08:12:47;4.10;99.90
12948;DHT22;6539;49.476;8.484;2023-03-12T08:15:15;4.20;99.90
12948;DHT22;6539;49.476;8.484;2023-03-12T08:17:41;4.00;99.90
12948;DHT22;6539;49.476;8.484;2023-03-12T08:20:10;3.90;99.90
12948;DHT22;6539;49.476;8.484;2023-03-12T08:22:39;3.90;99.90
12948;DHT22;6539;49.476;8.484;2023-03-12T08:25:08;4.10;99.90
12948;DHT22;6539;49.476;8.484;2023-03-12T08:27:34;4.00;99.90
12948;DHT22;6539;49.476;8.484;2023-03-12T08:30:04;3.90;99.90
12948;DHT22;6539;49.476;8.484;2023-03-12T08:32:30;4.30;99.90
12948;DHT22;6539;49.476;8.484;2023-03-12T08:34:56;4.30;99.90
12948;DHT22;6539;49.476;8.484;2023-03-12T08:39:51;4.30;99.90
12948;DHT22;6539;49.476;8.484;2023-03-12T08:44:47;3.90;99.90
12948;DHT22;6539;49.476;8.484;2023-03-12T08:47:15;4.10;99.90
12948;DHT22;6539;49.476;8.484;2023-03-12T08:49:41;4.10;99.90
12948;DHT22;6539;49.476;8.484;2023-03-12T08:52:07;4.30;99.90
12948;DHT22;6539;49.476;8.484;2023-03-12T08:54:35;3.90;99.90
12948;DHT22;6539;49.476;8.484;2023-03-12T08:57:01;4.10;99.90
12948;DHT22;6539;49.476;8.484;2023-03-12T08:59:29;4.30;99.90
12948;DHT22;6539;49.476;8.484;2023-03-12T09:04:23;4.20;99.90
12948;DHT22;6539;49.476;8.484;2023-03-12T09:06:49;4.20;99.90
12948;DHT22;6539;49.476;8.484;2023-03-12T09:09:14;4.40;99.90
12948;DHT22;6539;49.476;8.484;2023-03-12T09:11:45;4.50;99.90
12948;DHT22;6539;49.476;8.484;2023-03-12T09:14:10;4.30;99.90
12948;DHT22;6539;49.476;8.484;2023-03-12T09:16:36;4.60;99.90
12948;DHT22;6539;49.476;8.484;2023-03-12T09:19:02;4.40;99.90
12948;DHT22;6539;49.476;8.484;2023-03-12T09:23:56;4.60;99.90
12948;DHT22;6539;49.476;8.484;2023-03-12T09:26:22;4.60;99.90
12948;DHT22;6539;49.476;8.484;2023-03-12T09:36:09;4.60;99.90
12948;DHT22;6539;49.476;8.484;2023-03-12T09:38:37;4.80;99.90
12948;DHT22;6539;49.476;8.484;2023-03-12T09:41:04;4.80;99.90
12948;DHT22;6539;49.476;8.484;2023-03-12T09:43:39;4.90;99.90
12948;DHT22;6539;49.476;8.484;2023-03-12T09:49:14;4.90;99.90
12948;DHT22;6539;49.476;8.484;2023-03-12T09:57:39;4.70;99.90
12948;DHT22;6539;49.476;8.484;2023-03-12T10:00:10;4.90;99.90
12948;DHT22;6539;49.476;8.484;2023-03-12T10:20:45;5.70;99.90
12948;DHT22;6539;49.476;8.484;2023-03-12T10:26:22;5.50;99.90
12948;DHT22;6539;49.476;8.484;2023-03-12T10:28:59;5.50;99.90
12948;DHT22;6539;49.476;8.484;2023-03-12T10:31:59;6.30;99.90
12948;DHT22;6539;49.476;8.484;2023-03-12T10:34:54;6.60;99.90
12948;DHT22;6539;49.476;8.484;2023-03-12T10:37:47;6.80;99.90
12948;DHT22;6539;49.476;8.484;2023-03-12T10:40:26;7.10;99.90
12948;DHT22;6539;49.476;8.484;2023-03-12T10:42:58;6.80;99.90
12948;DHT22;6539;49.476;8.484;2023-03-12T10:48:26;7.10;99.90
12948;DHT22;6539;49.476;8.484;2023-03-12T10:51:09;6.80;99.90
12948;DHT22;6539;49.476;8.484;2023-03-12T10:53:40;6.90;99.90
12948;DHT22;6539;49.476;8.484;2023-03-12T10:56:13;6.80;99.90
12948;DHT22;6539;49.476;8.484;2023-03-12T10:58:50;6.90;99.90
12948;DHT22;6539;49.476;8.484;2023-03-12T11:01:30;6.50;99.90
12948;DHT22;6539;49.476;8.484;2023-03-12T11:04:18;6.70;99.90
12948;DHT22;6539;49.476;8.484;2023-03-12T11:09:30;6.90;99.90
12948;DHT22;6539;49.476;8.484;2023-03-12T11:11:56;7.10;99.90
12948;DHT22;6539;49.476;8.484;2023-03-12T11:14:27;7.40;99.90
12948;DHT22;6539;49.476;8.484;2023-03-12T11:17:21;6.90;99.90
12948;DHT22;6539;49.476;8.484;2023-03-12T11:19:49;7.10;99.90
12948;DHT22;6539;49.476;8.484;2023-03-12T11:22:28;7.20;99.90
12948;DHT22;6539;49.476;8.484;2023-03-12T11:25:04;7.40;99.90
12948;DHT22;6539;49.476;8.484;2023-03-12T11:27:44;7.30;99.90
12948;DHT22;6539;49.476;8.484;2023-03-12T11:30:16;7.10;99.90
12948;DHT22;6539;49.476;8.484;2023-03-12T11:32:48;7.40;99.90
12948;DHT22;6539;49.476;8.484;2023-03-12T11:38:37;8.00;99.90
12948;DHT22;6539;49.476;8.484;2023-03-12T11:41:22;8.10;99.90
12948;DHT22;6539;49.476;8.484;2023-03-12T11:43:59;8.20;99.90
12948;DHT22;6539;49.476;8.484;2023-03-12T12:00:51;10.00;99.90
12948;DHT22;6539;49.476;8.484;2023-03-12T12:20:36;10.80;99.90
12948;DHT22;6539;49.476;8.484;2023-03-12T12:26:11;10.80;99.90
12948;DHT22;6539;49.476;8.484;2023-03-12T12:31:51;10.90;99.90
12948;DHT22;6539;49.476;8.484;2023-03-12T12:38:08;10.60;99.90
12948;DHT22;6539;49.476;8.484;2023-03-12T12:40:46;11.10;99.90
12948;DHT22;6539;49.476;8.484;2023-03-12T12:46:14;11.00;99.90
12948;DHT22;6539;49.476;8.484;2023-03-12T12:48:47;10.90;99.90
12948;DHT22;6539;49.476;8.484;2023-03-12T12:51:26;10.90;99.90
12948;DHT22;6539;49.476;8.484;2023-03-12T12:54:22;10.60;99.90
12948;DHT22;6539;49.476;8.484;2023-03-12T12:57:41;10.90;99.90
12948;DHT22;6539;49.476;8.484;2023-03-12T13:00:43;10.90;99.90
12948;DHT22;6539;49.476;8.484;2023-03-12T13:03:16;11.20;99.90
12948;DHT22;6539;49.476;8.484;2023-03-12T13:06:02;11.00;99.90
12948;DHT22;6539;49.476;8.484;2023-03-12T13:13:42;11.70;99.90
12948;DHT22;6539;49.476;8.484;2023-03-12T13:27:45;12.90;99.90
12948;DHT22;6539;49.476;8.484;2023-03-12T13:35:35;13.30;99.90
12948;DHT22;6539;49.476;8.484;2023-03-12T13:38:10;13.80;99.90
12948;DHT22;6539;49.476;8.484;2023-03-12T13:40:57;13.90;99.90
12948;DHT22;6539;49.476;8.484;2023-03-12T13:46:28;14.10;99.90
12948;DHT22;6539;49.476;8.484;2023-03-12T13:49:08;14.10;99.90
12948;DHT22;6539;49.476;8.484;2023-03-12T13:51:45;13.90;99.90
12948;DHT22;6539;49.476;8.484;2023-03-12T13:54:19;14.60;99.90
12948;DHT22;6539;49.476;8.484;2023-03-12T14:00:09;14.00;99.90
12948;DHT22;6539;49.476;8.484;2023-03-12T14:02:47;14.20;99.90
12948;DHT22;6539;49.476;8.484;2023-03-12T14:05:18;14.00;99.90
12948;DHT22;6539;49.476;8.484;2023-03-12T14:08:42;14.10;99.90
12948;DHT22;6539;49.476;8.484;2023-03-12T14:11:40;14.10;99.90
12948;DHT22;6539;49.476;8.484;2023-03-12T14:17:39;13.90;99.90
12948;DHT22;6539;49.476;8.484;2023-03-12T14:20:13;13.80;99.90
12948;DHT22;6539;49.476;8.484;2023-03-12T14:22:45;13.80;99.90
12948;DHT22;6539;49.476;8.484;2023-03-12T14:25:35;14.00;99.90
12948;DHT22;6539;49.476;8.484;2023-03-12T14:28:13;13.80;99.90
12948;DHT22;6539;49.476;8.484;2023-03-12T14:33:31;14.10;99.90
12948;DHT22;6539;49.476;8.484;2023-03-12T14:36:12;13.90;99.90
12948;DHT22;6539;49.476;8.484;2023-03-12T14:38:45;13.90;99.90
12948;DHT22;6539;49.476;8.484;2023-03-12T14:41:23;13.60;99.90
12948;DHT22;6539;49.476;8.484;2023-03-12T14:43:53;13.80;99.90
12948;DHT22;6539;49.476;8.484;2023-03-12T14:51:29;13.30;99.90
12948;DHT22;6539;49.476;8.484;2023-03-12T14:54:03;13.20;99.90
12948;DHT22;6539;49.476;8.484;2023-03-12T14:56:33;13.30;99.90
12948;DHT22;6539;49.476;8.484;2023-03-12T14:59:30;13.20;99.90
12948;DHT22;6539;49.476;8.484;2023-03-12T15:02:09;13.20;99.90
12948;DHT22;6539;49.476;8.484;2023-03-12T15:07:05;13.10;99.90
12948;DHT22;6539;49.476;8.484;2023-03-12T15:09:44;13.10;99.90
12948;DHT22;6539;49.476;8.484;2023-03-12T15:12:25;13.30;99.90
12948;DHT22;6539;49.476;8.484;2023-03-12T15:15:16;12.80;99.90
12948;DHT22;6539;49.476;8.484;2023-03-12T15:17:56;13.00;99.90
12948;DHT22;6539;49.476;8.484;2023-03-12T15:20:25;13.00;99.90
12948;DHT22;6539;49.476;8.484;2023-03-12T15:22:52;12.90;99.90
12948;DHT22;6539;49.476;8.484;2023-03-12T15:25:28;13.00;99.90
12948;DHT22;6539;49.476;8.484;2023-03-12T15:28:26;13.20;99.90
12948;DHT22;6539;49.476;8.484;2023-03-12T15:31:15;13.00;99.90
12948;DHT22;6539;49.476;8.484;2023-03-12T15:33:43;13.00;99.90
12948;DHT22;6539;49.476;8.484;2023-03-12T15:38:54;13.00;99.90
12948;DHT22;6539;49.476;8.484;2023-03-12T15:41:47;12.90;99.90
12948;DHT22;6539;49.476;8.484;2023-03-12T15:44:26;12.80;99.90
12948;DHT22;6539;49.476;8.484;2023-03-12T15:47:03;12.90;99.90
12948;DHT22;6539;49.476;8.484;2023-03-12T15:49:36;13.00;99.90
12948;DHT22;6539;49.476;8.484;2023-03-12T15:52:30;12.90;99.90
12948;DHT22;6539;49.476;8.484;2023-03-12T15:57:51;12.90;99.90
12948;DHT22;6539;49.476;8.484;2023-03-12T16:00:33;13.00;99.90
12948;DHT22;6539;49.476;8.484;2023-03-12T16:03:15;12.90;99.90
12948;DHT22;6539;49.476;8.484;2023-03-12T16:05:43;13.00;99.90
12948;DHT22;6539;49.476;8.484;2023-03-12T16:10:46;13.10;99.90
12948;DHT22;6539;49.476;8.484;2023-03-12T16:13:17;12.80;99.90
12948;DHT22;6539;49.476;8.484;2023-03-12T16:15:48;12.80;99.90
12948;DHT22;6539;49.476;8.484;2023-03-12T16:18:20;12.90;99.90
12948;DHT22;6539;49.476;8.484;2023-03-12T16:20:52;12.90;99.90
12948;DHT22;6539;49.476;8.484;2023-03-12T16:25:47;12.90;99.90
12948;DHT22;6539;49.476;8.484;2023-03-12T16:28:18;12.90;99.90
12948;DHT22;6539;49.476;8.484;2023-03-12T16:33:19;12.90;99.90
12948;DHT22;6539;49.476;8.484;2023-03-12T16:38:20;12.90;99.90
12948;DHT22;6539;49.476;8.484;2023-03-12T16:40:50;12.90;99.90
12948;DHT22;6539;49.476;8.484;2023-03-12T16:43:19;12.90;99.90
12948;DHT22;6539;49.476;8.484;2023-03-12T16:48:19;12.80;99.90
12948;DHT22;6539;49.476;8.484;2023-03-12T16:50:53;12.80;99.90
12948;DHT22;6539;49.476;8.484;2023-03-12T16:53:21;12.80;99.90
12948;DHT22;6539;49.476;8.484;2023-03-12T16:55:50;12.80;99.90
12948;DHT22;6539;49.476;8.484;2023-03-12T16:58:18;12.60;99.90
12948;DHT22;6539;49.476;8.484;2023-03-12T17:00:49;12.80;99.90
12948;DHT22;6539;49.476;8.484;2023-03-12T17:05:59;12.80;99.90
12948;DHT22;6539;49.476;8.484;2023-03-12T17:08:25;12.80;99.90
12948;DHT22;6539;49.476;8.484;2023-03-12T17:10:57;12.80;99.90
12948;DHT22;6539;49.476;8.484;2023-03-12T17:13:26;12.60;99.90
12948;DHT22;6539;49.476;8.484;2023-03-12T17:15:55;12.40;99.90
12948;DHT22;6539;49.476;8.484;2023-03-12T17:18:23;13.00;99.90
12948;DHT22;6539;49.476;8.484;2023-03-12T17:20:49;12.80;99.90
12948;DHT22;6539;49.476;8.484;2023-03-12T17:23:20;12.50;99.90
12948;DHT22;6539;49.476;8.484;2023-03-12T17:25:47;12.70;99.90
12948;DHT22;6539;49.476;8.484;2023-03-12T17:28:13;12.90;99.90
12948;DHT22;6539;49.476;8.484;2023-03-12T17:30:42;12.60;99.90
12948;DHT22;6539;49.476;8.484;2023-03-12T17:33:13;12.40;99.90
12948;DHT22;6539;49.476;8.484;2023-03-12T17:35:43;12.60;99.90
12948;DHT22;6539;49.476;8.484;2023-03-12T17:38:11;12.60;99.90
12948;DHT22;6539;49.476;8.484;2023-03-12T17:40:43;12.70;99.90
12948;DHT22;6539;49.476;8.484;2023-03-12T17:43:13;12.60;99.90
12948;DHT22;6539;49.476;8.484;2023-03-12T17:45:39;12.80;99.90
12948;DHT22;6539;49.476;8.484;2023-03-12T17:48:10;12.80;99.90
12948;DHT22;6539;49.476;8.484;2023-03-12T17:50:39;12.50;99.90
12948;DHT22;6539;49.476;8.484;2023-03-12T17:53:07;12.60;99.90
12948;DHT22;6539;49.476;8.484;2023-03-12T17:55:35;12.60;99.90
12948;DHT22;6539;49.476;8.484;2023-03-12T17:58:04;12.60;99.90
12948;DHT22;6539;49.476;8.484;2023-03-12T18:00:32;12.60;99.90
12948;DHT22;6539;49.476;8.484;2023-03-12T18:03:03;12.60;99.90
12948;DHT22;6539;49.476;8.484;2023-03-12T18:05:28;12.60;99.90
12948;DHT22;6539;49.476;8.484;2023-03-12T18:07:54;12.30;99.90
12948;DHT22;6539;49.476;8.484;2023-03-12T18:10:20;12.80;99.90
12948;DHT22;6539;49.476;8.484;2023-03-12T18:12:46;12.70;99.90
12948;DHT22;6539;49.476;8.484;2023-03-12T18:15:15;12.60;99.90
12948;DHT22;6539;49.476;8.484;2023-03-12T18:17:41;12.60;99.90
12948;DHT22;6539;49.476;8.484;2023-03-12T18:22:43;12.60;99.90
12948;DHT22;6539;49.476;8.484;2023-03-12T18:25:10;12.60;99.90
12948;DHT22;6539;49.476;8.484;2023-03-12T18:27:37;12.60;99.90
12948;DHT22;6539;49.476;8.484;2023-03-12T18:30:03;12.60;99.90
12948;DHT22;6539;49.476;8.484;2023-03-12T18:32:32;12.40;99.90
12948;DHT22;6539;49.476;8.484;2023-03-12T18:35:01;12.40;99.90
12948;DHT22;6539;49.476;8.484;2023-03-12T18:37:28;12.40;99.90
12948;DHT22;6539;49.476;8.484;2023-03-12T18:39:54;12.60;99.90
12948;DHT22;6539;49.476;8.484;2023-03-12T18:42:24;12.70;99.90
12948;DHT22;6539;49.476;8.484;2023-03-12T18:44:52;13.90;99.90
12948;DHT22;6539;49.476;8.484;2023-03-12T18:47:20;12.40;99.90
12948;DHT22;6539;49.476;8.484;2023-03-12T18:49:46;12.10;99.90
12948;DHT22;6539;49.476;8.484;2023-03-12T18:52:12;12.10;99.90
12948;DHT22;6539;49.476;8.484;2023-03-12T18:54:41;12.50;99.90
12948;DHT22;6539;49.476;8.484;2023-03-12T18:57:07;12.30;99.90
12948;DHT22;6539;49.476;8.484;2023-03-12T18:59:33;12.30;99.90
12948;DHT22;6539;49.476;8.484;2023-03-12T19:01:59;12.40;99.90
12948;DHT22;6539;49.476;8.484;2023-03-12T19:04:25;12.30;99.90
12948;DHT22;6539;49.476;8.484;2023-03-12T19:06:51;12.30;99.90
12948;DHT22;6539;49.476;8.484;2023-03-12T19:09:17;12.20;99.90
12948;DHT22;6539;49.476;8.484;2023-03-12T19:11:43;12.30;99.90
12948;DHT22;6539;49.476;8.484;2023-03-12T19:14:11;12.20;99.90
12948;DHT22;6539;49.476;8.484;2023-03-12T19:16:37;12.00;99.90
12948;DHT22;6539;49.476;8.484;2023-03-12T19:19:02;11.90;99.90
12948;DHT22;6539;49.476;8.484;2023-03-12T19:21:28;12.00;99.90
12948;DHT22;6539;49.476;8.484;2023-03-12T19:23:56;12.20;99.90
12948;DHT22;6539;49.476;8.484;2023-03-12T19:26:22;12.30;99.90
12948;DHT22;6539;49.476;8.484;2023-03-12T19:28:50;12.00;99.90
12948;DHT22;6539;49.476;8.484;2023-03-12T19:31:16;12.00;99.90
12948;DHT22;6539;49.476;8.484;2023-03-12T19:36:11;12.30;99.90
12948;DHT22;6539;49.476;8.484;2023-03-12T19:38:37;12.40;99.90
12948;DHT22;6539;49.476;8.484;2023-03-12T19:41:05;12.50;99.90
12948;DHT22;6539;49.476;8.484;2023-03-12T19:43:35;12.20;99.90
12948;DHT22;6539;49.476;8.484;2023-03-12T19:48:28;12.20;99.90
12948;DHT22;6539;49.476;8.484;2023-03-12T19:53:23;12.20;99.90
12948;DHT22;6539;49.476;8.484;2023-03-12T19:55:49;12.10;99.90
12948;DHT22;6539;49.476;8.484;2023-03-12T19:58:16;12.20;99.90
12948;DHT22;6539;49.476;8.484;2023-03-12T20:00:42;12.30;99.90
12948;DHT22;6539;49.476;8.484;2023-03-12T20:03:11;12.20;99.90